createdAt,value
2018-03-17T00:02:48.032Z,5.70
2018-03-17T00:08:16.205Z,9.30
2018-03-17T00:13:44.341Z,6.33
2018-03-17T00:19:15.171Z,6.37
2018-03-17T00:24:43.310Z,8.40
2018-03-17T00:30:11.442Z,10.20
2018-03-17T00:35:40.592Z,5.50
2018-03-17T00:41:09.495Z,10.13
2018-03-17T00:46:37.644Z,8.00
2018-03-17T00:52:07.536Z,7.63
2018-03-17T00:57:35.686Z,6.27
2018-03-17T01:03:03.823Z,6.50
2018-03-17T01:08:31.971Z,8.73
2018-03-17T01:14:00.129Z,12.03
2018-03-17T01:19:28.558Z,10.30
2018-03-17T01:24:56.690Z,7.97
2018-03-17T01:30:25.900Z,27.47
2018-03-17T01:35:54.068Z,9.07
2018-03-17T01:41:22.272Z,8.23
2018-03-17T01:46:50.398Z,9.93
2018-03-17T01:52:31.990Z,7.77
2018-03-17T01:58:01.110Z,8.00
2018-03-17T02:03:30.031Z,8.97
2018-03-17T02:08:58.318Z,6.70
2018-03-17T02:14:26.515Z,7.73
2018-03-17T02:19:54.688Z,5.80
2018-03-17T02:25:22.881Z,7.07
2018-03-17T02:30:51.018Z,5.33
2018-03-17T02:36:19.170Z,6.57
2018-03-17T02:41:47.296Z,5.30
2018-03-17T02:47:15.420Z,7.27
2018-03-17T02:52:44.330Z,9.10
2018-03-17T02:58:12.504Z,7.30
2018-03-17T03:03:40.662Z,7.63
2018-03-17T03:09:12.818Z,8.60
2018-03-17T03:14:41.705Z,6.60
2018-03-17T03:20:10.781Z,7.40
2018-03-17T03:25:38.987Z,8.03
2018-03-17T03:31:07.120Z,7.07
2018-03-17T03:36:36.010Z,8.03
2018-03-17T03:42:06.142Z,5.70
2018-03-17T03:47:35.059Z,9.20
2018-03-17T03:53:03.208Z,5.97
2018-03-17T03:58:31.348Z,10.93
2018-03-17T04:03:59.498Z,9.97
2018-03-17T04:09:31.833Z,6.80
2018-03-17T04:14:59.988Z,7.03
2018-03-17T04:20:29.143Z,7.03
2018-03-17T04:25:57.359Z,5.47
2018-03-17T04:31:25.572Z,6.07
2018-03-17T04:36:54.500Z,6.10
2018-03-17T04:42:22.686Z,9.97
2018-03-17T04:47:51.534Z,6.97
2018-03-17T04:53:31.502Z,7.37
2018-03-17T04:58:59.639Z,5.77
2018-03-17T05:04:27.794Z,9.27
2018-03-17T05:09:55.957Z,8.80
2018-03-17T05:15:24.083Z,6.13
2018-03-17T05:20:52.218Z,7.93
2018-03-17T05:26:20.351Z,5.67
2018-03-17T05:31:49.254Z,8.43
2018-03-17T05:37:18.399Z,8.23
2018-03-17T05:42:47.352Z,7.20
2018-03-17T05:48:15.486Z,7.03
2018-03-17T05:53:45.547Z,9.43
2018-03-17T05:59:13.678Z,9.20
2018-03-17T06:04:41.835Z,6.50
2018-03-17T06:10:11.040Z,8.97
2018-03-17T06:15:40.665Z,7.93
2018-03-17T06:21:08.827Z,7.60
2018-03-17T06:26:38.861Z,9.87
2018-03-17T06:32:08.958Z,7.43
2018-03-17T06:37:37.115Z,8.13
2018-03-17T06:43:11.908Z,10.83
2018-03-17T06:48:40.081Z,9.00
2018-03-17T06:54:08.325Z,10.10
2018-03-17T06:59:36.473Z,13.10
2018-03-17T07:05:04.617Z,11.37
2018-03-17T07:10:33.552Z,12.27
2018-03-17T07:16:01.707Z,14.50
2018-03-17T07:21:29.864Z,18.90
2018-03-17T07:26:58.036Z,11.40
2018-03-17T07:32:26.991Z,12.53
2018-03-17T07:37:56.291Z,15.03
2018-03-17T07:43:24.471Z,16.90
2018-03-17T07:48:52.696Z,73.87
2018-03-17T07:54:22.169Z,70.73
2018-03-17T07:59:50.334Z,57.87
2018-03-17T08:05:18.478Z,46.17
2018-03-17T08:10:47.575Z,57.60
2018-03-17T08:16:16.522Z,64.40
2018-03-17T08:21:45.439Z,58.17
2018-03-17T08:27:13.592Z,47.10
2018-03-17T08:32:43.756Z,55.77
2018-03-17T08:38:11.910Z,51.67
2018-03-17T08:43:40.436Z,52.87
2018-03-17T08:49:08.600Z,52.57
2018-03-17T08:54:37.536Z,42.20
2018-03-17T09:00:06.691Z,51.60
2018-03-17T09:05:35.608Z,49.57
2018-03-17T09:11:04.045Z,43.73
2018-03-17T09:16:32.187Z,47.57
2018-03-17T09:22:02.035Z,41.70
2018-03-17T09:27:32.899Z,48.33
2018-03-17T09:33:01.090Z,38.33
2018-03-17T09:38:29.262Z,35.10
2018-03-17T09:43:57.453Z,40.60
2018-03-17T09:49:25.727Z,36.33
2018-03-17T09:54:53.952Z,39.13
2018-03-17T10:00:22.914Z,30.40
2018-03-17T10:05:52.115Z,25.60
2018-03-17T10:11:20.313Z,34.33
2018-03-17T10:16:50.209Z,37.43
2018-03-17T10:22:18.482Z,38.00
2018-03-17T10:27:47.420Z,31.53
2018-03-17T10:33:16.720Z,32.63
2018-03-17T10:38:44.862Z,30.10
2018-03-17T10:44:13.218Z,35.90
2018-03-17T10:49:42.301Z,42.87
2018-03-17T10:55:10.517Z,48.93
2018-03-17T11:00:44.277Z,44.07
2018-03-17T11:06:12.644Z,47.93
2018-03-17T11:11:41.610Z,48.97
2018-03-17T11:17:12.015Z,49.53
2018-03-17T11:22:40.404Z,64.97
2018-03-17T11:28:09.370Z,58.83
2018-03-17T11:33:38.308Z,60.67
2018-03-17T11:39:06.514Z,64.93
2018-03-17T11:44:35.421Z,57.97
2018-03-17T11:50:03.577Z,51.53
2018-03-17T11:55:32.556Z,47.87
2018-03-17T12:01:00.734Z,41.43
2018-03-17T12:06:29.732Z,37.30
2018-03-17T12:11:57.920Z,40.00
2018-03-17T12:17:26.373Z,38.53
2018-03-17T12:22:54.641Z,42.87
2018-03-17T12:28:23.825Z,42.83
2018-03-17T12:33:53.178Z,35.83
2018-03-17T12:39:21.368Z,43.73
2018-03-17T12:44:50.315Z,43.60
2018-03-17T12:50:18.491Z,51.83
2018-03-17T12:55:46.708Z,55.43
2018-03-17T13:01:15.804Z,49.60
2018-03-17T13:06:43.942Z,53.30
2018-03-17T13:12:13.051Z,57.07
2018-03-17T13:17:41.983Z,64.17
2018-03-17T13:23:16.256Z,58.53
2018-03-17T13:28:45.396Z,62.97
2018-03-17T13:34:13.538Z,55.53
2018-03-17T13:39:42.451Z,41.90
2018-03-17T13:45:11.370Z,39.43
2018-03-17T13:50:40.374Z,40.40
2018-03-17T13:56:08.757Z,33.47
2018-03-17T14:01:37.081Z,35.10
2018-03-17T14:07:05.257Z,34.27
2018-03-17T14:12:34.333Z,37.80
2018-03-17T14:18:03.234Z,33.03
2018-03-17T14:23:32.182Z,34.80
2018-03-17T14:29:00.381Z,35.47
2018-03-17T14:34:28.591Z,34.40
2018-03-17T14:39:58.346Z,32.37
2018-03-17T14:45:26.563Z,31.60
2018-03-17T14:50:55.888Z,27.57
2018-03-17T14:56:24.161Z,30.30
2018-03-17T15:01:53.366Z,28.53
2018-03-17T15:07:21.626Z,28.77
2018-03-17T15:12:50.793Z,27.20
2018-03-17T15:18:19.793Z,27.97
2018-03-17T15:23:48.030Z,28.87
2018-03-17T15:29:17.230Z,31.00
2018-03-17T15:34:46.110Z,35.30
2018-03-17T15:40:16.369Z,34.90
2018-03-17T15:45:44.489Z,30.20
2018-03-17T15:51:12.695Z,32.60
2018-03-17T15:56:40.925Z,32.83
2018-03-17T16:02:09.107Z,31.10
2018-03-17T16:07:37.277Z,30.13
2018-03-17T16:13:05.500Z,27.93
2018-03-17T16:18:33.601Z,29.87
2018-03-17T16:24:01.792Z,29.87
2018-03-17T16:29:30.049Z,27.83
2018-03-17T16:35:00.365Z,28.13
2018-03-17T16:40:32.316Z,32.53
2018-03-17T16:46:00.719Z,28.53
2018-03-17T16:51:29.056Z,32.53
2018-03-17T16:56:57.970Z,30.70
2018-03-17T17:02:28.345Z,31.50
2018-03-17T17:07:56.564Z,28.83
2018-03-17T17:13:25.528Z,32.47
2018-03-17T17:18:53.769Z,37.47
2018-03-17T17:24:22.935Z,31.40
2018-03-17T17:29:55.027Z,30.40
2018-03-17T17:35:23.245Z,30.67
2018-03-17T17:40:51.975Z,32.90
2018-03-17T17:46:24.814Z,31.60
2018-03-17T17:51:53.149Z,41.83
2018-03-17T17:57:23.306Z,33.97
2018-03-17T18:02:54.785Z,34.40
2018-03-17T18:08:23.042Z,27.20
2018-03-17T18:13:52.527Z,27.80
2018-03-17T18:19:25.912Z,27.17
2018-03-17T18:24:56.054Z,28.30
2018-03-17T18:30:27.194Z,25.97
2018-03-17T18:36:03.175Z,24.67
2018-03-17T18:41:31.757Z,24.67
2018-03-17T18:47:00.709Z,22.20
2018-03-17T18:52:29.884Z,23.07
2018-03-17T18:58:03.422Z,29.00
2018-03-17T19:03:31.952Z,24.73
2018-03-17T19:09:01.090Z,28.67
2018-03-17T19:14:29.368Z,29.10
2018-03-17T19:19:58.308Z,24.50
2018-03-17T19:25:27.329Z,28.47
2018-03-17T19:30:55.508Z,27.27
2018-03-17T19:36:24.892Z,24.03
2018-03-17T19:41:54.990Z,27.10
2018-03-17T19:47:23.158Z,24.33
2018-03-17T19:52:51.337Z,28.10
2018-03-17T19:58:21.795Z,23.70
2018-03-17T20:03:50.120Z,24.83
2018-03-17T20:09:19.134Z,27.07
2018-03-17T20:15:07.157Z,33.50
2018-03-17T20:20:39.443Z,32.67
2018-03-17T20:26:07.736Z,31.93
2018-03-17T20:31:36.187Z,24.63
2018-03-17T20:37:04.327Z,28.63
2018-03-17T20:42:34.556Z,24.87
2018-03-17T20:48:02.737Z,31.37
2018-03-17T20:53:31.814Z,27.37
2018-03-17T20:59:01.180Z,28.63
2018-03-17T21:04:30.998Z,29.83
2018-03-17T21:09:59.296Z,27.57
2018-03-17T21:15:29.181Z,33.60
2018-03-17T21:20:57.368Z,33.30
2018-03-17T21:26:27.557Z,31.67
2018-03-17T21:31:55.825Z,33.70
2018-03-17T21:37:24.950Z,28.50
2018-03-17T21:42:55.096Z,34.30
2018-03-17T21:48:24.605Z,34.10
2018-03-17T21:53:52.878Z,34.77
2018-03-17T21:59:21.270Z,36.37
2018-03-17T22:04:50.179Z,37.57
2018-03-17T22:10:18.349Z,38.10
2018-03-17T22:15:46.511Z,36.10
2018-03-17T22:21:15.644Z,33.03
2018-03-17T22:26:44.752Z,40.83
2018-03-17T22:32:13.156Z,41.90
2018-03-17T22:37:41.537Z,33.33
2018-03-17T22:43:09.960Z,37.90
2018-03-17T22:48:40.162Z,37.50
2018-03-17T22:54:09.177Z,32.47
2018-03-17T22:59:38.325Z,33.10
2018-03-17T23:05:06.482Z,31.60
2018-03-17T23:10:35.522Z,35.77
2018-03-17T23:16:09.986Z,36.47
2018-03-17T23:21:43.154Z,35.37
2018-03-17T23:27:11.368Z,36.33
2018-03-17T23:32:39.520Z,35.37
2018-03-17T23:38:07.696Z,36.33
2018-03-17T23:43:38.111Z,43.05
2018-03-17T23:49:06.439Z,32.20
2018-03-17T23:54:34.733Z,33.40
